createdAt,value
2019-03-31T00:00:09.979Z,1.00
2019-03-31T00:02:50.664Z,1.00
2019-03-31T00:05:31.212Z,1.00
2019-03-31T00:08:11.949Z,1.00
2019-03-31T00:10:53.011Z,1.00
2019-03-31T00:13:33.630Z,1.00
2019-03-31T00:16:14.027Z,1.00
2019-03-31T00:18:54.556Z,1.00
2019-03-31T00:21:35.635Z,1.00
2019-03-31T00:24:16.545Z,1.00
2019-03-31T00:26:57.258Z,1.00
2019-03-31T00:29:38.256Z,1.00
2019-03-31T00:32:19.085Z,1.00
2019-03-31T00:35:00.236Z,1.00
2019-03-31T00:37:40.917Z,1.00
2019-03-31T00:40:22.021Z,1.00
2019-03-31T00:43:02.656Z,1.00
2019-03-31T00:45:41.397Z,1.00
2019-03-31T00:48:29.170Z,1.00
2019-03-31T00:51:16.969Z,1.00
2019-03-31T00:54:04.802Z,1.00
2019-03-31T00:56:52.586Z,1.00
2019-03-31T00:59:40.353Z,1.00
2019-03-31T01:11:32.396Z,1.00
2019-03-31T01:20:26.989Z,1.00
2019-03-31T01:23:07.301Z,1.00
2019-03-31T01:25:48.129Z,1.00
2019-03-31T01:28:28.927Z,1.00
2019-03-31T01:31:09.573Z,1.00
2019-03-31T01:33:50.393Z,1.00
2019-03-31T01:36:31.376Z,1.00
2019-03-31T01:39:12.329Z,1.00
2019-03-31T01:41:53.225Z,1.00
2019-03-31T01:44:34.150Z,1.00
2019-03-31T01:47:15.153Z,1.00
2019-03-31T01:49:56.048Z,1.00
2019-03-31T01:52:36.932Z,1.00
2019-03-31T01:55:17.490Z,1.00
2019-03-31T01:57:58.301Z,1.00
2019-03-31T02:00:40.941Z,1.00
2019-03-31T02:03:21.968Z,1.00
2019-03-31T02:06:02.785Z,1.00
2019-03-31T02:08:43.742Z,1.00
2019-03-31T02:11:24.784Z,1.00
2019-03-31T02:14:05.517Z,1.00
2019-03-31T02:16:46.297Z,1.00
2019-03-31T02:19:27.319Z,1.00
2019-03-31T02:22:08.121Z,1.00
2019-03-31T02:24:49.057Z,1.00
2019-03-31T02:27:30.039Z,1.00
2019-03-31T02:30:11.027Z,1.00
2019-03-31T02:32:51.621Z,1.00
2019-03-31T02:35:32.739Z,1.00
2019-03-31T02:38:13.530Z,1.00
2019-03-31T02:40:54.227Z,1.00
2019-03-31T02:43:35.226Z,1.00
2019-03-31T02:46:16.256Z,1.00
2019-03-31T02:48:57.328Z,1.00
2019-03-31T02:51:38.297Z,1.00
2019-03-31T02:54:18.722Z,1.00
2019-03-31T02:56:59.883Z,1.00
2019-03-31T02:59:40.513Z,1.00
2019-03-31T03:02:21.675Z,1.00
2019-03-31T03:05:17.878Z,1.00
2019-03-31T03:07:44.938Z,1.00
2019-03-31T03:10:25.716Z,1.00
2019-03-31T03:13:06.368Z,1.00
2019-03-31T03:15:47.082Z,1.00
2019-03-31T03:18:28.081Z,1.00
2019-03-31T03:21:08.812Z,1.00
2019-03-31T03:23:49.600Z,1.00
2019-03-31T03:26:30.064Z,6.00
2019-03-31T03:29:11.117Z,1.00
2019-03-31T03:31:52.201Z,1.00
2019-03-31T03:34:33.210Z,1.00
2019-03-31T03:37:14.110Z,1.00
2019-03-31T03:39:55.126Z,1.00
2019-03-31T03:42:35.785Z,1.00
2019-03-31T03:45:16.613Z,1.00
2019-03-31T03:47:55.361Z,1.00
2019-03-31T03:50:43.142Z,2.10
2019-03-31T03:53:30.902Z,1.90
2019-03-31T03:56:18.698Z,2.30
2019-03-31T03:59:06.466Z,1.00
2019-03-31T04:01:54.249Z,1.00
2019-03-31T04:04:42.044Z,1.00
2019-03-31T04:07:29.899Z,1.00
2019-03-31T04:10:37.064Z,1.00
2019-03-31T04:13:24.910Z,1.00
2019-03-31T04:16:12.678Z,1.00
2019-03-31T04:19:00.471Z,1.00
2019-03-31T04:21:48.307Z,1.00
2019-03-31T04:24:36.094Z,1.00
2019-03-31T04:27:23.870Z,1.00
2019-03-31T04:30:11.734Z,1.00
2019-03-31T04:32:59.566Z,1.00
2019-03-31T04:35:40.339Z,1.00
2019-03-31T04:38:20.988Z,1.00
2019-03-31T04:41:01.902Z,1.00
2019-03-31T04:43:42.953Z,1.00
2019-03-31T04:46:23.661Z,2.10
2019-03-31T04:49:04.679Z,9.90
2019-03-31T04:51:45.465Z,14.70
2019-03-31T04:54:25.702Z,13.60
2019-03-31T04:57:06.409Z,32.30
2019-03-31T04:59:47.440Z,28.50
2019-03-31T05:02:28.402Z,28.00
2019-03-31T05:05:07.223Z,25.70
2019-03-31T05:07:55.081Z,21.20
2019-03-31T05:10:42.859Z,20.00
2019-03-31T05:13:30.663Z,24.00
2019-03-31T05:16:18.436Z,23.60
2019-03-31T05:19:06.226Z,18.00
2019-03-31T05:21:53.992Z,14.60
2019-03-31T05:24:41.781Z,14.40
2019-03-31T05:27:29.557Z,24.60
2019-03-31T05:30:17.412Z,8.30
2019-03-31T05:33:05.178Z,1.00
2019-03-31T05:35:45.909Z,1.00
2019-03-31T05:38:26.132Z,1.00
2019-03-31T05:41:06.925Z,1.00
2019-03-31T05:43:47.092Z,1.00
2019-03-31T05:46:28.082Z,1.00
2019-03-31T05:49:08.781Z,99.90
2019-03-31T05:51:49.801Z,1.00
2019-03-31T05:54:30.748Z,50.40
2019-03-31T05:57:11.842Z,99.90
2019-03-31T05:59:52.674Z,1.00
2019-03-31T06:02:33.573Z,99.90
2019-03-31T06:05:14.589Z,35.10
2019-03-31T06:07:55.406Z,99.90
2019-03-31T06:10:34.174Z,99.90
2019-03-31T06:13:21.960Z,1.00
2019-03-31T06:16:09.733Z,1.00
2019-03-31T06:18:57.517Z,1.00
2019-03-31T06:21:45.328Z,99.90
2019-03-31T06:24:33.164Z,1.00
2019-03-31T06:27:20.941Z,1.00
2019-03-31T06:30:08.897Z,89.50
2019-03-31T06:32:56.719Z,99.90
2019-03-31T06:35:37.014Z,6.60
2019-03-31T06:38:17.713Z,1.00
2019-03-31T06:40:58.857Z,1.00
2019-03-31T06:43:39.597Z,99.90
2019-03-31T06:46:20.484Z,99.90
2019-03-31T06:48:59.210Z,99.90
2019-03-31T06:51:46.996Z,99.90
2019-03-31T06:54:34.765Z,99.90
2019-03-31T06:57:22.569Z,99.90
2019-03-31T07:00:10.509Z,99.90
2019-03-31T07:02:58.416Z,1.00
2019-03-31T07:05:46.303Z,1.00
2019-03-31T07:08:34.088Z,1.00
2019-03-31T07:11:21.851Z,1.00
2019-03-31T07:14:09.637Z,1.00
2019-03-31T07:16:57.408Z,1.00
2019-03-31T07:19:45.216Z,1.00
2019-03-31T07:22:32.980Z,1.00
2019-03-31T07:25:20.769Z,1.00
2019-03-31T07:28:08.604Z,1.00
2019-03-31T07:30:59.301Z,1.00
2019-03-31T07:33:45.880Z,1.00
2019-03-31T07:36:33.674Z,1.00
2019-03-31T07:39:21.441Z,1.00
2019-03-31T07:42:16.139Z,1.00
2019-03-31T07:47:51.424Z,99.90
2019-03-31T07:50:39.198Z,99.90
2019-03-31T07:53:26.991Z,1.00
2019-03-31T07:56:16.280Z,1.00
2019-03-31T07:59:04.274Z,1.00
2019-03-31T08:01:52.041Z,1.00
2019-03-31T08:04:39.833Z,1.00
2019-03-31T08:07:27.689Z,1.00
2019-03-31T08:10:16.202Z,1.00
2019-03-31T08:13:04.038Z,1.00
2019-03-31T08:15:51.820Z,1.00
2019-03-31T08:18:39.601Z,1.00
2019-03-31T08:21:27.388Z,1.00
2019-03-31T08:24:15.332Z,99.90
2019-03-31T08:27:05.624Z,99.90
2019-03-31T08:30:00.477Z,1.00
2019-03-31T08:32:42.262Z,1.00
2019-03-31T08:35:23.846Z,99.90
2019-03-31T08:38:05.285Z,1.00
2019-03-31T08:40:46.084Z,99.90
2019-03-31T08:43:26.924Z,99.90
2019-03-31T08:46:06.632Z,99.90
2019-03-31T08:49:06.734Z,99.90
2019-03-31T08:51:56.805Z,99.90
2019-03-31T09:00:44.315Z,99.90
2019-03-31T09:03:53.858Z,99.90
2019-03-31T09:06:54.155Z,99.90
2019-03-31T09:27:37.531Z,99.90
2019-03-31T09:36:25.988Z,99.90
2019-03-31T09:39:07.391Z,99.90
2019-03-31T09:41:48.398Z,99.90
2019-03-31T09:44:30.388Z,99.90
2019-03-31T09:47:11.529Z,99.90
2019-03-31T09:49:52.451Z,99.90
2019-03-31T09:52:33.254Z,99.90
2019-03-31T09:55:13.840Z,99.90
2019-03-31T09:57:54.629Z,99.90
2019-03-31T10:00:35.233Z,99.90
2019-03-31T10:03:16.005Z,99.90
2019-03-31T10:06:09.948Z,99.90
2019-03-31T10:08:39.436Z,99.90
2019-03-31T10:11:20.018Z,99.90
2019-03-31T10:14:00.760Z,99.90
2019-03-31T10:16:41.874Z,99.90
2019-03-31T10:19:22.777Z,99.90
2019-03-31T10:22:03.549Z,99.90
2019-03-31T10:24:44.390Z,99.90
2019-03-31T10:27:25.381Z,99.90
2019-03-31T10:30:05.428Z,99.90
2019-03-31T10:32:53.196Z,99.90
2019-03-31T10:35:33.512Z,99.90
2019-03-31T10:38:14.374Z,99.90
2019-03-31T10:40:55.172Z,99.90
2019-03-31T10:43:36.037Z,99.90
2019-03-31T10:46:16.324Z,99.90
2019-03-31T10:48:57.254Z,99.90
2019-03-31T10:51:38.005Z,99.90
2019-03-31T10:54:18.509Z,99.90
2019-03-31T10:56:59.311Z,99.90
2019-03-31T10:59:40.029Z,99.90
2019-03-31T11:02:20.908Z,99.90
2019-03-31T11:05:01.901Z,99.90
2019-03-31T11:07:42.889Z,1.00
2019-03-31T11:10:23.620Z,1.00
2019-03-31T11:13:04.465Z,1.00
2019-03-31T11:15:45.265Z,99.90
2019-03-31T11:18:26.021Z,99.90
2019-03-31T11:21:08.508Z,1.00
2019-03-31T11:23:49.534Z,1.00
2019-03-31T11:26:30.132Z,1.00
2019-03-31T11:29:10.870Z,1.00
2019-03-31T11:31:52.057Z,99.90
2019-03-31T11:34:32.753Z,99.90
2019-03-31T11:37:14.115Z,99.90
2019-03-31T11:39:54.436Z,99.90
2019-03-31T11:42:35.046Z,99.90
2019-03-31T11:45:16.138Z,99.90
2019-03-31T11:47:57.116Z,99.90
2019-03-31T11:50:37.885Z,99.90
2019-03-31T11:53:18.557Z,99.90
2019-03-31T11:55:57.333Z,99.90
2019-03-31T12:01:51.994Z,99.90
2019-03-31T12:04:39.764Z,99.90
2019-03-31T12:07:28.604Z,99.90
2019-03-31T12:10:19.787Z,99.90
2019-03-31T12:13:06.559Z,99.90
2019-03-31T12:15:54.347Z,99.90
2019-03-31T12:18:42.208Z,99.90
2019-03-31T12:21:29.995Z,99.90
2019-03-31T12:24:17.789Z,99.90
2019-03-31T12:27:05.573Z,99.90
2019-03-31T12:29:53.365Z,99.90
2019-03-31T12:32:38.035Z,99.90
2019-03-31T12:35:16.953Z,99.90
2019-03-31T12:37:58.197Z,99.90
2019-03-31T12:40:39.320Z,99.90
2019-03-31T12:43:20.101Z,99.90
2019-03-31T12:46:00.449Z,99.90
2019-03-31T12:48:41.601Z,99.90
2019-03-31T12:51:22.712Z,99.90
2019-03-31T12:54:03.537Z,99.90
2019-03-31T12:56:44.377Z,99.90
2019-03-31T12:59:27.289Z,99.90
2019-03-31T13:02:07.204Z,99.90
2019-03-31T13:04:48.193Z,99.90
2019-03-31T13:07:29.305Z,99.90
2019-03-31T13:10:10.341Z,99.90
2019-03-31T13:12:50.657Z,99.90
2019-03-31T13:15:31.489Z,99.90
2019-03-31T13:18:12.095Z,99.90
2019-03-31T13:20:52.831Z,99.90
2019-03-31T13:23:33.752Z,99.90
2019-03-31T13:26:14.392Z,99.90
2019-03-31T13:28:55.282Z,99.90
2019-03-31T13:31:36.267Z,99.90
2019-03-31T13:34:16.777Z,99.90
2019-03-31T13:36:57.610Z,99.90
2019-03-31T13:39:38.081Z,99.90
2019-03-31T13:42:18.585Z,99.90
2019-03-31T13:44:59.448Z,99.90
2019-03-31T13:47:40.385Z,99.90
2019-03-31T13:50:21.250Z,99.90
2019-03-31T13:53:02.128Z,99.90
2019-03-31T13:55:43.169Z,99.90
2019-03-31T13:58:25.355Z,99.90
2019-03-31T14:01:06.847Z,99.90
2019-03-31T14:03:47.892Z,99.90
2019-03-31T14:06:31.648Z,99.90
2019-03-31T14:09:11.883Z,99.90
2019-03-31T14:11:53.002Z,99.90
2019-03-31T14:14:34.044Z,99.90
2019-03-31T14:17:12.781Z,99.90
2019-03-31T14:20:00.554Z,99.90
2019-03-31T14:22:48.345Z,99.90
2019-03-31T14:25:36.120Z,99.90
2019-03-31T14:28:23.913Z,99.90
2019-03-31T14:31:11.680Z,99.90
2019-03-31T14:33:52.285Z,99.90
2019-03-31T14:36:33.137Z,99.90
2019-03-31T14:39:16.995Z,99.90
2019-03-31T14:41:55.949Z,99.90
2019-03-31T14:44:36.293Z,99.90
2019-03-31T14:47:17.100Z,99.90
2019-03-31T14:49:58.064Z,99.90
2019-03-31T14:52:38.625Z,1.00
2019-03-31T14:55:19.439Z,99.90
2019-03-31T14:58:00.617Z,99.90
2019-03-31T15:00:41.460Z,99.90
2019-03-31T15:03:22.190Z,99.90
2019-03-31T15:06:02.939Z,99.90
2019-03-31T15:08:54.267Z,99.90
2019-03-31T15:11:26.246Z,99.90
2019-03-31T15:14:07.238Z,99.90
2019-03-31T15:16:48.555Z,99.90
2019-03-31T15:19:27.421Z,99.90
2019-03-31T15:22:15.295Z,99.90
2019-03-31T15:25:23.781Z,99.90
2019-03-31T15:28:11.599Z,99.90
2019-03-31T15:30:59.432Z,99.90
2019-03-31T15:33:40.532Z,99.90
2019-03-31T15:36:21.206Z,99.90
2019-03-31T15:39:08.780Z,99.90
2019-03-31T15:41:44.564Z,99.90
2019-03-31T15:44:25.621Z,99.90
2019-03-31T15:47:06.622Z,99.90
2019-03-31T15:49:47.329Z,99.90
2019-03-31T15:52:28.435Z,99.90
2019-03-31T15:55:09.556Z,99.90
2019-03-31T15:57:50.439Z,99.90
2019-03-31T16:00:31.492Z,99.90
2019-03-31T16:03:12.472Z,99.90
2019-03-31T16:05:53.399Z,99.90
2019-03-31T16:08:33.995Z,99.90
2019-03-31T16:11:15.016Z,99.90
2019-03-31T16:13:55.705Z,99.90
2019-03-31T16:16:36.710Z,99.90
2019-03-31T16:19:17.765Z,99.90
2019-03-31T16:21:58.704Z,99.90
2019-03-31T16:24:41.255Z,99.90
2019-03-31T16:27:22.259Z,99.90
2019-03-31T16:30:03.641Z,99.90
2019-03-31T16:32:44.011Z,99.90
2019-03-31T16:35:24.949Z,99.90
2019-03-31T16:38:05.905Z,99.90
2019-03-31T16:40:46.858Z,99.90
2019-03-31T16:43:27.880Z,99.90
2019-03-31T16:46:08.843Z,99.90
2019-03-31T16:48:49.959Z,99.90
2019-03-31T16:51:31.212Z,99.90
2019-03-31T16:54:12.284Z,99.90
2019-03-31T16:56:53.311Z,99.90
2019-03-31T16:59:34.430Z,99.90
2019-03-31T17:02:15.353Z,99.90
2019-03-31T17:04:56.529Z,99.90
2019-03-31T17:07:37.429Z,99.90
2019-03-31T17:10:18.391Z,99.90
2019-03-31T17:12:58.938Z,99.90
2019-03-31T17:15:39.727Z,99.90
2019-03-31T17:18:20.876Z,99.90
2019-03-31T17:21:01.813Z,99.90
2019-03-31T17:23:43.420Z,99.90
2019-03-31T17:26:24.703Z,99.90
2019-03-31T17:29:05.538Z,99.90
2019-03-31T17:31:46.265Z,99.90
2019-03-31T17:34:26.908Z,99.90
2019-03-31T17:37:07.787Z,99.90
2019-03-31T17:39:48.581Z,99.90
2019-03-31T17:42:29.718Z,99.90
2019-03-31T17:45:10.740Z,99.90
2019-03-31T17:47:51.572Z,99.90
2019-03-31T17:50:32.438Z,99.90
2019-03-31T17:53:13.123Z,99.90
2019-03-31T17:55:54.083Z,99.90
2019-03-31T17:58:35.193Z,99.90
2019-03-31T18:01:16.446Z,99.90
2019-03-31T18:03:57.346Z,99.90
2019-03-31T18:06:37.967Z,99.90
2019-03-31T18:09:18.604Z,99.90
2019-03-31T18:11:59.373Z,99.90
2019-03-31T18:14:40.041Z,99.90
2019-03-31T18:17:20.750Z,99.90
2019-03-31T18:20:01.197Z,99.90
2019-03-31T18:22:42.222Z,99.90
2019-03-31T18:25:22.941Z,99.90
2019-03-31T18:28:03.754Z,99.90
2019-03-31T18:30:44.897Z,99.90
2019-03-31T18:33:25.557Z,99.90
2019-03-31T18:36:06.313Z,99.90
2019-03-31T18:38:47.206Z,99.90
2019-03-31T18:41:28.112Z,99.90
2019-03-31T18:44:10.788Z,99.90
2019-03-31T18:46:49.955Z,99.90
2019-03-31T18:49:49.664Z,99.90
2019-03-31T18:52:41.735Z,99.90
2019-03-31T18:55:36.705Z,99.90
2019-03-31T18:58:44.059Z,99.90
2019-03-31T19:04:59.724Z,99.90
2019-03-31T19:08:06.887Z,99.90
2019-03-31T19:14:08.782Z,99.90
2019-03-31T19:23:05.454Z,99.90
2019-03-31T19:26:12.683Z,99.90
2019-03-31T19:32:28.387Z,99.90
2019-03-31T19:35:28.631Z,99.90
2019-03-31T19:38:09.265Z,99.90
2019-03-31T19:41:16.458Z,99.90
2019-03-31T19:44:23.615Z,99.90
2019-03-31T19:47:30.749Z,99.90
2019-03-31T19:50:37.819Z,99.90
2019-03-31T19:59:48.283Z,99.90
2019-03-31T20:02:55.462Z,99.90
2019-03-31T20:06:02.585Z,99.90
2019-03-31T20:12:18.260Z,99.90
2019-03-31T20:15:25.886Z,99.90
2019-03-31T20:18:32.959Z,99.90
2019-03-31T20:21:39.959Z,99.90
2019-03-31T20:24:47.109Z,99.90
2019-03-31T20:31:02.654Z,99.90
2019-03-31T20:34:09.617Z,99.90
2019-03-31T20:36:52.049Z,99.90
2019-03-31T20:39:34.037Z,99.90
2019-03-31T20:42:33.973Z,99.90
2019-03-31T20:45:15.061Z,99.90
2019-03-31T20:47:55.983Z,99.90
2019-03-31T20:50:36.458Z,99.90
2019-03-31T20:53:17.351Z,99.90
2019-03-31T20:55:58.326Z,99.90
2019-03-31T20:58:39.182Z,99.90
2019-03-31T21:01:20.006Z,99.90
2019-03-31T21:04:00.178Z,99.90
2019-03-31T21:06:40.930Z,99.90
2019-03-31T21:09:21.837Z,99.90
2019-03-31T21:12:02.797Z,99.90
2019-03-31T21:14:43.445Z,99.90
2019-03-31T21:17:24.558Z,99.90
2019-03-31T21:20:05.621Z,99.90
2019-03-31T21:22:46.218Z,99.90
2019-03-31T21:25:26.982Z,1.00
2019-03-31T21:28:08.096Z,1.00
2019-03-31T21:30:49.137Z,1.00
2019-03-31T21:33:30.125Z,1.00
2019-03-31T21:36:11.033Z,1.00
2019-03-31T21:38:51.838Z,1.00
2019-03-31T21:41:32.603Z,1.00
2019-03-31T21:44:13.371Z,1.00
2019-03-31T21:46:55.936Z,39.70
2019-03-31T21:49:37.066Z,99.90
2019-03-31T21:52:17.453Z,99.90
2019-03-31T21:54:58.414Z,99.90
2019-03-31T21:57:39.097Z,99.90
2019-03-31T22:00:21.940Z,1.00
2019-03-31T22:03:03.057Z,1.00
2019-03-31T22:05:43.737Z,49.00
2019-03-31T22:08:24.676Z,99.90
2019-03-31T22:11:05.466Z,99.90
2019-03-31T22:13:46.029Z,1.00
2019-03-31T22:16:26.572Z,1.00
2019-03-31T22:19:07.408Z,99.90
2019-03-31T22:21:48.408Z,99.90
2019-03-31T22:24:29.321Z,99.90
2019-03-31T22:27:09.953Z,99.90
2019-03-31T22:29:50.650Z,1.00
2019-03-31T22:32:31.215Z,1.00
2019-03-31T22:35:12.125Z,99.90
2019-03-31T22:37:53.119Z,1.00
2019-03-31T22:40:34.136Z,99.90
2019-03-31T22:43:14.873Z,1.00
2019-03-31T22:45:55.677Z,99.90
2019-03-31T22:48:36.637Z,93.20
2019-03-31T22:51:17.496Z,1.00
2019-03-31T22:53:58.217Z,1.00
2019-03-31T22:56:38.481Z,1.00
2019-03-31T22:59:19.427Z,1.00
2019-03-31T23:02:00.137Z,14.70
2019-03-31T23:04:40.907Z,1.00
2019-03-31T23:07:21.865Z,1.00
2019-03-31T23:10:00.783Z,99.90
2019-03-31T23:12:48.653Z,42.40
2019-03-31T23:15:36.424Z,99.90
2019-03-31T23:18:24.212Z,99.90
2019-03-31T23:21:12.002Z,99.90
2019-03-31T23:23:59.789Z,99.90
2019-03-31T23:26:47.583Z,99.90
2019-03-31T23:29:35.380Z,1.00
2019-03-31T23:32:23.162Z,99.90
2019-03-31T23:35:11.034Z,1.00
2019-03-31T23:37:58.800Z,1.30
2019-03-31T23:40:46.601Z,99.90
2019-03-31T23:43:34.372Z,99.90
2019-03-31T23:46:22.164Z,99.90
2019-03-31T23:49:09.932Z,99.90
2019-03-31T23:51:57.717Z,1.00
2019-03-31T23:57:52.437Z,99.90
